Time;durP1;ratioP1;P1;durP2;ratioP2;P2;SDS_P1;SDS_P2;PMS_P1;PMS_P2;Temp;Humidity;BMP_temperature;BMP_pressure;BME280_temperature;BME280_humidity;BME280_pressure;Samples;Min_cycle;Max_cycle;Signal;HPM_P1;HPM_P2
2024/01/14 00:02:00;;;;;;;3.35;3.05;;;21.50;29.00;;;;;;5052186;28;20215;-62
2024/01/14 00:04:27;;;;;;;3.00;2.70;;;21.50;29.00;;;;;;5051818;28;20255;-61
2024/01/14 00:06:54;;;;;;;4.00;3.15;;;21.50;29.00;;;;;;5052053;28;20259;-62
2024/01/14 00:09:20;;;;;;;3.95;2.90;;;21.50;28.90;;;;;;5052279;28;20286;-62
2024/01/14 00:11:48;;;;;;;5.68;3.28;;;21.50;28.90;;;;;;5054296;28;20310;-62
2024/01/14 00:14:15;;;;;;;4.50;3.05;;;21.50;28.90;;;;;;5055963;28;20226;-62
2024/01/14 00:16:42;;;;;;;4.07;3.30;;;21.50;28.90;;;;;;5056212;28;20219;-62
2024/01/14 00:19:09;;;;;;;3.17;2.80;;;21.50;28.90;;;;;;5055820;28;20194;-61
2024/01/14 00:21:36;;;;;;;3.30;2.42;;;21.50;28.90;;;;;;5055764;28;20580;-62
2024/01/14 00:24:03;;;;;;;4.10;3.00;;;21.50;28.90;;;;;;5055770;28;20215;-62
2024/01/14 00:26:30;;;;;;;3.53;3.00;;;21.50;29.40;;;;;;5055609;28;20220;-62
2024/01/14 00:29:00;;;;;;;3.75;3.10;;;21.50;28.90;;;;;;5056016;28;20198;-62
2024/01/14 00:31:26;;;;;;;3.55;3.22;;;21.50;28.90;;;;;;5055471;28;20783;-62
2024/01/14 00:33:53;;;;;;;3.35;2.97;;;21.50;28.90;;;;;;5055564;28;20274;-62
2024/01/14 00:36:20;;;;;;;5.18;3.45;;;21.50;28.90;;;;;;5055713;28;20636;-62
2024/01/14 00:38:47;;;;;;;4.72;3.05;;;21.50;28.90;;;;;;5055758;28;20187;-62
2024/01/14 00:41:14;;;;;;;3.90;3.15;;;21.50;28.90;;;;;;5055097;28;20693;-61
2024/01/14 00:43:41;;;;;;;3.85;2.85;;;21.50;28.90;;;;;;5055317;28;20192;-62
2024/01/14 00:46:09;;;;;;;3.63;2.90;;;21.50;28.90;;;;;;5055541;28;20237;-62
2024/01/14 00:48:36;;;;;;;4.10;3.50;;;21.50;28.90;;;;;;5055222;28;20211;-62
2024/01/14 00:51:03;;;;;;;4.30;3.45;;;21.50;29.30;;;;;;5055148;28;20192;-62
2024/01/14 00:53:30;;;;;;;3.22;2.85;;;21.50;28.80;;;;;;5055165;28;20194;-62
2024/01/14 00:55:57;;;;;;;3.00;2.70;;;21.50;28.80;;;;;;5055160;28;20194;-62
2024/01/14 00:58:24;;;;;;;3.45;2.95;;;21.50;28.80;;;;;;5055366;28;20271;-62
2024/01/14 01:00:51;;;;;;;3.13;2.83;;;21.50;28.80;;;;;;5055229;28;20184;-62
2024/01/14 01:03:19;;;;;;;3.90;3.20;;;21.50;28.80;;;;;;5054716;28;20669;-63
2024/01/14 01:05:46;;;;;;;3.30;3.00;;;21.50;28.80;;;;;;5055172;28;20211;-58
2024/01/14 01:08:13;;;;;;;3.83;3.42;;;21.50;28.80;;;;;;5054767;28;20318;-62
2024/01/14 01:10:40;;;;;;;3.78;3.30;;;21.50;28.70;;;;;;5055107;28;20207;-62
2024/01/14 01:13:06;;;;;;;3.65;2.90;;;21.50;28.80;;;;;;5054821;28;20258;-62
2024/01/14 01:15:33;;;;;;;4.45;3.38;;;21.50;29.30;;;;;;5055065;28;20274;-62
2024/01/14 01:18:00;;;;;;;3.30;3.00;;;21.50;28.80;;;;;;5054903;28;20246;-62
2024/01/14 01:20:28;;;;;;;4.85;3.17;;;21.50;28.80;;;;;;5054939;28;20282;-61
2024/01/14 01:22:55;;;;;;;4.00;2.92;;;21.50;28.70;;;;;;5054961;28;20215;-63
2024/01/14 01:25:22;;;;;;;3.45;3.13;;;21.50;28.70;;;;;;5054436;28;20222;-61
2024/01/14 01:27:49;;;;;;;3.88;2.92;;;21.50;28.70;;;;;;5055080;28;20306;-62
2024/01/14 01:30:16;;;;;;;3.78;3.10;;;21.50;28.70;;;;;;5054742;28;20198;-62
2024/01/14 01:32:43;;;;;;;4.20;3.03;;;21.50;28.70;;;;;;5054301;28;20663;-62
2024/01/14 01:35:10;;;;;;;3.33;2.88;;;21.40;28.60;;;;;;5054726;28;20212;-62
2024/01/14 01:37:38;;;;;;;3.85;3.30;;;21.50;28.70;;;;;;5054698;28;20310;-62
2024/01/14 01:40:09;;;;;;;4.32;3.33;;;21.40;29.10;;;;;;5054368;28;20282;-62
2024/01/14 01:42:36;;;;;;;3.10;2.80;;;21.50;28.60;;;;;;5054396;28;20247;-62
2024/01/14 01:45:04;;;;;;;4.55;3.42;;;21.40;28.60;;;;;;5054216;28;20231;-62
2024/01/14 01:47:31;;;;;;;3.10;2.75;;;21.40;28.60;;;;;;5054299;28;20222;-61
2024/01/14 01:49:58;;;;;;;4.13;3.10;;;21.40;28.60;;;;;;5054116;28;20198;-62
2024/01/14 01:52:25;;;;;;;4.55;3.10;;;21.40;28.60;;;;;;5054475;28;20278;-62
2024/01/14 01:54:55;;;;;;;3.72;3.28;;;21.40;28.60;;;;;;5053994;28;20196;-62
2024/01/14 01:57:24;;;;;;;3.15;2.67;;;21.40;28.60;;;;;;5054031;28;20723;-62
2024/01/14 01:59:52;;;;;;;4.03;3.00;;;21.40;28.60;;;;;;5054169;28;20279;-62
2024/01/14 02:02:20;;;;;;;3.63;3.20;;;21.40;28.50;;;;;;5053555;28;20223;-62
2024/01/14 02:04:48;;;;;;;5.35;3.35;;;21.40;28.60;;;;;;5053718;28;20231;-62
2024/01/14 02:07:15;;;;;;;3.97;3.13;;;21.40;28.60;;;;;;5053549;28;20310;-62
2024/01/14 02:09:42;;;;;;;3.63;3.28;;;21.40;28.60;;;;;;5053954;28;20192;-62
2024/01/14 02:12:11;;;;;;;3.80;3.40;;;21.40;28.50;;;;;;5053616;28;20788;-62
2024/01/14 02:14:37;;;;;;;3.90;3.35;;;21.40;28.50;;;;;;5054002;28;20284;-62
2024/01/14 02:17:04;;;;;;;4.18;3.38;;;21.40;28.50;;;;;;5053629;28;20251;-62
2024/01/14 02:19:31;;;;;;;3.33;3.03;;;21.40;28.50;;;;;;5053536;28;20306;-62
2024/01/14 02:22:05;;;;;;;4.57;3.55;;;21.40;28.50;;;;;;5053811;28;20306;-61
2024/01/14 02:24:34;;;;;;;4.35;3.13;;;21.40;28.50;;;;;;5053318;28;20183;-61
2024/01/14 02:27:01;;;;;;;3.50;3.20;;;21.40;28.60;;;;;;5053814;28;20310;-62
2024/01/14 02:29:29;;;;;;;4.07;3.20;;;21.40;28.60;;;;;;5053640;28;20279;-62
2024/01/14 02:31:56;;;;;;;3.72;3.30;;;21.40;28.50;;;;;;5053178;28;20215;-62
2024/01/14 02:34:23;;;;;;;6.03;3.25;;;21.40;28.50;;;;;;5052932;28;20197;-62
2024/01/14 02:36:50;;;;;;;3.80;3.40;;;21.40;28.50;;;;;;5053446;28;20219;-63
2024/01/14 02:39:17;;;;;;;3.80;3.40;;;21.40;28.40;;;;;;5052905;28;20657;-62
2024/01/14 02:41:45;;;;;;;4.10;3.40;;;21.40;28.30;;;;;;5053356;28;20302;-62
2024/01/14 02:44:12;;;;;;;3.33;2.90;;;21.40;28.40;;;;;;5053740;28;20216;-61
2024/01/14 02:46:40;;;;;;;6.47;3.80;;;21.40;28.40;;;;;;5052894;28;20231;-62
2024/01/14 02:49:07;;;;;;;4.40;3.50;;;21.40;28.50;;;;;;5053032;28;20192;-62
2024/01/14 02:51:34;;;;;;;3.58;3.28;;;21.40;28.30;;;;;;5053488;28;20310;-62
2024/01/14 02:54:02;;;;;;;5.85;3.92;;;21.40;28.30;;;;;;5052847;28;20283;-61
2024/01/14 02:56:29;;;;;;;4.35;3.45;;;21.40;28.30;;;;;;5052891;28;20216;-62
2024/01/14 02:58:57;;;;;;;4.13;3.35;;;21.40;28.30;;;;;;5053134;28;20206;-61
2024/01/14 03:01:24;;;;;;;3.83;3.38;;;21.40;28.20;;;;;;5052663;28;20219;-62
2024/01/14 03:03:51;;;;;;;4.30;3.70;;;21.40;28.20;;;;;;5052982;28;20640;-62
2024/01/14 03:06:18;;;;;;;4.10;3.47;;;21.40;28.20;;;;;;5052412;28;20788;-62
2024/01/14 03:08:45;;;;;;;4.28;3.65;;;21.40;28.20;;;;;;5052612;28;20286;-62
2024/01/14 03:11:12;;;;;;;3.80;3.15;;;21.40;28.20;;;;;;5052349;28;20202;-61
2024/01/14 03:13:38;;;;;;;4.28;3.40;;;21.40;28.20;;;;;;5052862;28;20287;-61
2024/01/14 03:16:07;;;;;;;4.07;3.67;;;21.40;28.20;;;;;;5052485;28;20284;-61
2024/01/14 03:18:34;;;;;;;3.92;3.53;;;21.40;28.20;;;;;;5052786;28;20192;-62
2024/01/14 03:21:00;;;;;;;4.25;3.42;;;21.40;28.70;;;;;;5052674;28;20333;-62
2024/01/14 03:23:27;;;;;;;4.30;3.85;;;21.40;28.70;;;;;;5052218;28;20184;-56
2024/01/14 03:25:54;;;;;;;4.25;3.55;;;21.40;28.20;;;;;;5052734;28;20220;-61
2024/01/14 03:28:21;;;;;;;4.03;3.55;;;21.40;28.20;;;;;;5052853;28;20224;-61
2024/01/14 03:30:48;;;;;;;4.07;3.63;;;21.40;28.20;;;;;;5052554;28;20187;-61
2024/01/14 03:33:16;;;;;;;4.75;4.10;;;21.40;28.20;;;;;;5052275;28;20306;-62
2024/01/14 03:35:43;;;;;;;5.28;4.30;;;21.40;28.20;;;;;;5052159;28;20187;-62
2024/01/14 03:38:10;;;;;;;5.07;4.22;;;21.40;28.20;;;;;;5052729;28;20215;-62
2024/01/14 03:40:36;;;;;;;4.43;3.83;;;21.30;28.10;;;;;;5052146;28;20210;-62
2024/01/14 03:43:03;;;;;;;4.57;3.80;;;21.40;28.70;;;;;;5052403;28;20234;-61
2024/01/14 03:45:30;;;;;;;4.97;4.05;;;21.40;28.20;;;;;;5051392;28;20355;-62
2024/01/14 03:47:57;;;;;;;4.20;3.70;;;21.40;28.20;;;;;;5052140;28;20215;-62
2024/01/14 03:50:25;;;;;;;4.63;3.80;;;21.40;28.20;;;;;;5051950;28;20192;-61
2024/01/14 03:52:52;;;;;;;4.32;3.85;;;21.40;28.20;;;;;;5052453;28;20220;-62
2024/01/14 03:55:19;;;;;;;5.03;4.00;;;21.40;28.20;;;;;;5052008;28;20242;-62
2024/01/14 03:57:46;;;;;;;6.20;4.47;;;21.40;28.20;;;;;;5052087;28;20714;-60
2024/01/14 04:00:14;;;;;;;5.38;4.38;;;21.40;28.70;;;;;;5051865;28;20191;-62
2024/01/14 04:02:41;;;;;;;6.00;4.47;;;21.40;28.20;;;;;;5052033;28;20224;-58
2024/01/14 04:05:08;;;;;;;4.72;3.70;;;21.40;28.20;;;;;;5052093;28;20194;-62
2024/01/14 04:07:36;;;;;;;4.63;4.03;;;21.40;28.20;;;;;;5051887;28;20239;-61
2024/01/14 04:10:04;;;;;;;5.30;4.13;;;21.40;28.20;;;;;;5052063;28;20201;-62
2024/01/14 04:12:30;;;;;;;6.07;4.22;;;21.40;28.20;;;;;;5052103;28;20311;-62
2024/01/14 04:14:57;;;;;;;5.32;4.38;;;21.40;28.20;;;;;;5051773;28;20188;-62
2024/01/14 04:17:24;;;;;;;5.07;4.47;;;21.30;28.10;;;;;;5051765;28;20215;-62
2024/01/14 04:19:51;;;;;;;5.38;4.57;;;21.40;28.70;;;;;;5052079;28;20210;-62
2024/01/14 04:22:18;;;;;;;7.05;4.60;;;21.40;28.20;;;;;;5050339;28;20211;-62
2024/01/14 04:24:46;;;;;;;5.85;4.97;;;21.40;28.20;;;;;;5051512;28;20199;-62
2024/01/14 04:27:13;;;;;;;6.47;4.70;;;21.40;28.20;;;;;;5051996;28;20234;-62
2024/01/14 04:29:40;;;;;;;5.45;4.25;;;21.30;28.10;;;;;;5051963;28;20183;-62
2024/01/14 04:32:07;;;;;;;5.10;4.47;;;21.40;28.70;;;;;;5051603;28;20223;-62
2024/01/14 04:34:34;;;;;;;7.38;4.78;;;21.40;28.20;;;;;;5051915;28;20184;-62
2024/01/14 04:37:01;;;;;;;6.00;4.80;;;21.30;28.10;;;;;;5051567;28;20602;-62
2024/01/14 04:39:28;;;;;;;6.32;4.85;;;21.40;28.20;;;;;;5051257;28;20188;-62
2024/01/14 04:41:58;;;;;;;7.82;4.85;;;21.40;28.20;;;;;;5051750;28;20234;-62
2024/01/14 04:44:24;;;;;;;7.57;5.43;;;21.40;28.20;;;;;;5052032;28;20282;-62
2024/01/14 04:46:51;;;;;;;5.95;5.05;;;21.40;28.20;;;;;;5051275;28;20267;-60
2024/01/14 04:49:18;;;;;;;7.07;5.70;;;21.40;28.20;;;;;;5051731;28;20270;-62
2024/01/14 04:51:45;;;;;;;5.68;4.70;;;21.30;28.10;;;;;;5051734;28;20254;-62
2024/01/14 04:54:12;;;;;;;5.72;4.75;;;21.40;28.20;;;;;;5051710;28;20192;-62
2024/01/14 04:56:39;;;;;;;7.57;5.22;;;21.30;28.10;;;;;;5052435;28;20220;-62
2024/01/14 04:59:08;;;;;;;6.30;4.75;;;21.30;28.20;;;;;;5055454;28;20275;-62
2024/01/14 05:01:35;;;;;;;7.53;5.30;;;21.40;28.20;;;;;;5054975;28;20306;-62
2024/01/14 05:04:02;;;;;;;6.57;5.13;;;21.30;28.10;;;;;;5055230;28;20188;-58
2024/01/14 05:06:29;;;;;;;6.75;5.32;;;21.40;28.20;;;;;;5054934;28;20285;-62
2024/01/14 05:08:56;;;;;;;6.78;4.97;;;21.30;28.10;;;;;;5054700;28;20202;-62
2024/01/14 05:11:23;;;;;;;6.68;5.38;;;21.30;28.10;;;;;;5055306;28;20290;-62
2024/01/14 05:13:50;;;;;;;5.82;4.70;;;21.30;28.10;;;;;;5055199;28;20184;-62
2024/01/14 05:16:18;;;;;;;7.03;5.40;;;21.30;28.10;;;;;;5054775;28;20631;-62
2024/01/14 05:18:46;;;;;;;7.68;5.47;;;21.40;28.20;;;;;;5055051;28;20595;-62
2024/01/14 05:21:16;;;;;;;7.47;5.57;;;21.30;28.10;;;;;;5054600;28;20674;-62
2024/01/14 05:23:43;;;;;;;6.63;4.97;;;21.30;28.10;;;;;;5054672;28;20192;-62
2024/01/14 05:26:10;;;;;;;6.30;5.22;;;21.40;28.20;;;;;;5054880;28;20226;-60
2024/01/14 05:28:37;;;;;;;7.13;5.20;;;21.40;28.20;;;;;;5054849;28;20198;-62
2024/01/14 05:31:04;;;;;;;6.65;5.20;;;21.30;28.10;;;;;;5054499;28;20184;-62
2024/01/14 05:33:32;;;;;;;7.32;5.65;;;21.30;28.10;;;;;;5054918;28;20303;-61
2024/01/14 05:35:59;;;;;;;7.63;5.65;;;21.30;28.10;;;;;;5054654;28;20188;-62
2024/01/14 05:38:26;;;;;;;6.40;5.32;;;21.30;28.10;;;;;;5054619;28;20246;-62
2024/01/14 05:40:53;;;;;;;7.63;5.85;;;21.30;28.10;;;;;;5054460;28;20259;-62
2024/01/14 05:43:20;;;;;;;7.03;5.63;;;21.30;28.10;;;;;;5054749;28;20761;-62
2024/01/14 05:45:47;;;;;;;8.10;5.50;;;21.30;28.10;;;;;;5054021;28;20215;-62
2024/01/14 05:48:13;;;;;;;7.55;5.57;;;21.30;28.10;;;;;;5054513;28;20215;-62
2024/01/14 05:50:42;;;;;;;8.48;5.88;;;21.30;28.10;;;;;;5054424;28;20279;-62
2024/01/14 05:53:09;;;;;;;7.18;5.68;;;21.30;28.10;;;;;;5053715;28;20306;-62
2024/01/14 05:55:35;;;;;;;8.15;6.00;;;21.30;28.10;;;;;;5054341;28;20198;-62
2024/01/14 05:58:02;;;;;;;7.07;5.65;;;21.30;28.10;;;;;;5054450;28;20315;-61
2024/01/14 06:00:29;;;;;;;7.72;6.07;;;21.30;28.10;;;;;;5053595;28;20188;-62
2024/01/14 06:02:56;;;;;;;7.65;5.75;;;21.30;28.10;;;;;;5054373;28;20222;-63
2024/01/14 06:05:23;;;;;;;7.35;5.55;;;21.30;28.10;;;;;;5054200;28;20219;-62
2024/01/14 06:07:52;;;;;;;7.07;5.68;;;21.30;28.10;;;;;;5052895;28;20243;-63
2024/01/14 06:10:18;;;;;;;6.68;5.25;;;21.30;28.10;;;;;;5053639;28;20195;-62
2024/01/14 06:12:45;;;;;;;7.72;6.10;;;21.30;28.10;;;;;;5053933;28;20215;-63
2024/01/14 06:15:12;;;;;;;7.10;5.57;;;21.30;28.70;;;;;;5053344;28;20202;-62
2024/01/14 06:17:39;;;;;;;7.50;5.85;;;21.30;28.10;;;;;;5053726;28;20226;-62
2024/01/14 06:20:09;;;;;;;8.00;5.95;;;21.30;28.60;;;;;;5053815;28;20274;-62
2024/01/14 06:22:36;;;;;;;7.43;6.00;;;21.30;28.10;;;;;;5053609;28;20216;-61
2024/01/14 06:25:05;;;;;;;7.30;5.50;;;21.30;28.10;;;;;;5053535;28;20661;-62
2024/01/14 06:27:32;;;;;;;8.32;5.95;;;21.30;28.10;;;;;;5053779;28;20235;-62
2024/01/14 06:30:00;;;;;;;7.15;5.95;;;21.30;28.10;;;;;;5053313;28;20283;-62
2024/01/14 06:32:27;;;;;;;8.02;6.32;;;21.30;28.10;;;;;;5053736;28;20220;-62
2024/01/14 06:34:53;;;;;;;7.45;5.68;;;21.30;28.10;;;;;;5053590;28;20622;-62
2024/01/14 06:37:20;;;;;;;8.73;6.90;;;21.30;28.10;;;;;;5053036;28;20719;-62
2024/01/14 06:39:47;;;;;;;7.30;5.63;;;21.30;28.10;;;;;;5053416;28;20282;-62
2024/01/14 06:42:15;;;;;;;7.85;5.95;;;21.30;28.10;;;;;;5053324;28;20290;-62
2024/01/14 06:44:42;;;;;;;7.03;5.03;;;21.30;28.10;;;;;;5053066;28;20198;-62
2024/01/14 06:47:09;;;;;;;7.72;6.18;;;21.30;28.10;;;;;;5053255;28;20235;-62
2024/01/14 06:49:36;;;;;;;6.88;5.70;;;21.30;28.10;;;;;;5053352;28;20187;-62
2024/01/14 06:52:03;;;;;;;8.02;6.35;;;21.30;28.10;;;;;;5052593;28;20222;-59
2024/01/14 06:54:30;;;;;;;7.38;6.00;;;21.30;28.10;;;;;;5053284;28;20286;-62
2024/01/14 06:56:57;;;;;;;7.20;5.97;;;21.30;28.10;;;;;;5053160;28;20306;-59
2024/01/14 06:59:25;;;;;;;8.52;6.13;;;21.30;28.10;;;;;;5052738;28;20196;-61
2024/01/14 07:01:52;;;;;;;8.93;6.38;;;21.30;28.10;;;;;;5053099;28;20223;-61
2024/01/14 07:04:19;;;;;;;7.97;6.35;;;21.30;28.10;;;;;;5053112;28;20187;-62
2024/01/14 07:06:46;;;;;;;7.57;5.53;;;21.30;28.10;;;;;;5052426;28;20615;-62
2024/01/14 07:09:13;;;;;;;7.97;6.15;;;21.30;28.10;;;;;;5052924;28;20291;-62
2024/01/14 07:11:40;;;;;;;7.75;6.00;;;21.30;28.10;;;;;;5052721;28;20226;-63
2024/01/14 07:14:07;;;;;;;8.52;6.60;;;21.30;28.10;;;;;;5052569;28;20275;-62
2024/01/14 07:16:36;;;;;;;8.35;6.30;;;21.30;28.10;;;;;;5052492;28;20664;-62
2024/01/14 07:19:03;;;;;;;8.27;6.25;;;21.30;28.10;;;;;;5052788;28;20199;-62
2024/01/14 07:21:31;;;;;;;7.22;5.70;;;21.30;28.10;;;;;;5052167;28;20223;-62
2024/01/14 07:23:58;;;;;;;8.00;6.20;;;21.30;28.10;;;;;;5052757;28;20241;-62
2024/01/14 07:26:24;;;;;;;7.75;6.13;;;21.30;28.10;;;;;;5052598;28;20298;-62
2024/01/14 07:28:52;;;;;;;7.78;6.00;;;21.30;28.10;;;;;;5052321;28;20188;-62
2024/01/14 07:31:21;;;;;;;8.35;6.15;;;21.30;28.10;;;;;;5052584;28;20195;-62
2024/01/14 07:33:50;;;;;;;8.35;6.18;;;21.30;28.10;;;;;;5052533;28;20187;-61
2024/01/14 07:36:17;;;;;;;7.75;6.15;;;21.30;28.10;;;;;;5052238;28;20196;-62
2024/01/14 07:38:45;;;;;;;8.40;6.13;;;21.30;28.10;;;;;;5052751;28;20218;-62
2024/01/14 07:41:13;;;;;;;8.25;5.95;;;21.30;28.20;;;;;;5052447;28;20222;-62
2024/01/14 07:43:40;;;;;;;9.20;6.28;;;21.30;28.10;;;;;;5052007;28;20600;-62
2024/01/14 07:46:07;;;;;;;8.02;6.03;;;21.30;28.10;;;;;;5052255;28;20627;-62
2024/01/14 07:48:34;;;;;;;7.72;6.28;;;21.30;28.10;;;;;;5052438;28;20593;-62
2024/01/14 07:51:03;;;;;;;7.53;5.70;;;21.20;28.00;;;;;;5051983;28;20271;-62
2024/01/14 07:53:30;;;;;;;7.22;5.65;;;21.30;28.10;;;;;;5052245;28;20701;-62
2024/01/14 07:55:57;;;;;;;8.93;6.03;;;21.30;28.10;;;;;;5052276;28;20275;-61
2024/01/14 07:58:24;;;;;;;7.13;5.45;;;21.30;28.10;;;;;;5051764;28;20219;-61
2024/01/14 08:00:51;;;;;;;7.68;6.10;;;21.30;28.10;;;;;;5052209;28;20222;-62
2024/01/14 08:03:18;;;;;;;8.32;5.88;;;21.30;28.10;;;;;;5052021;28;20226;-61
2024/01/14 08:05:45;;;;;;;7.10;5.35;;;21.30;28.10;;;;;;5051904;28;20203;-60
2024/01/14 08:08:13;;;;;;;7.18;5.55;;;21.30;28.10;;;;;;5051844;28;20239;-62
2024/01/14 08:10:40;;;;;;;7.80;5.85;;;21.30;28.10;;;;;;5052363;28;20283;-61
2024/01/14 08:13:07;;;;;;;7.75;5.68;;;21.30;28.10;;;;;;5051975;28;20212;-62
2024/01/14 08:15:34;;;;;;;8.52;5.80;;;21.30;28.10;;;;;;5052042;28;20206;-61
2024/01/14 08:18:01;;;;;;;7.53;6.05;;;21.30;28.10;;;;;;5051904;28;20226;-62
2024/01/14 08:20:28;;;;;;;8.98;6.18;;;21.30;28.10;;;;;;5051740;28;20573;-62
2024/01/14 08:22:55;;;;;;;6.85;5.38;;;21.30;28.10;;;;;;5051833;28;20220;-62
2024/01/14 08:25:23;;;;;;;7.82;5.80;;;21.30;28.10;;;;;;5052011;28;20191;-61
2024/01/14 08:27:52;;;;;;;6.30;5.20;;;21.30;28.10;;;;;;5051395;28;20621;-62
2024/01/14 08:30:19;;;;;;;8.00;5.65;;;21.30;28.10;;;;;;5051950;28;20266;-60
2024/01/14 08:32:46;;;;;;;8.38;5.97;;;21.20;28.00;;;;;;5054665;28;20215;-62
2024/01/14 08:35:13;;;;;;;7.38;5.97;;;21.30;28.10;;;;;;5055244;28;20191;-62
2024/01/14 08:37:43;;;;;;;7.35;5.45;;;21.20;28.50;;;;;;5055884;28;20223;-62
2024/01/14 08:40:12;;;;;;;7.88;5.53;;;21.30;28.10;;;;;;5055454;28;20669;-62
2024/01/14 08:42:43;;;;;;;8.68;6.07;;;21.30;28.10;;;;;;5055846;28;20216;-62
2024/01/14 08:45:11;;;;;;;7.32;5.40;;;21.20;28.00;;;;;;5055672;28;20195;-62
2024/01/14 08:47:38;;;;;;;7.40;5.35;;;21.30;28.10;;;;;;5055573;28;20235;-62
2024/01/14 08:50:06;;;;;;;7.80;6.00;;;21.20;28.00;;;;;;5055159;28;20196;-61
2024/01/14 08:52:33;;;;;;;7.35;5.45;;;21.30;28.10;;;;;;5055232;28;20219;-62
2024/01/14 08:55:00;;;;;;;6.95;5.47;;;21.20;28.00;;;;;;5055267;28;20184;-62
2024/01/14 08:57:27;;;;;;;7.45;5.88;;;21.30;28.10;;;;;;5055213;28;20219;-62
2024/01/14 08:59:56;;;;;;;7.03;5.45;;;21.30;28.10;;;;;;5055395;28;20200;-62
2024/01/14 09:02:23;;;;;;;7.82;5.82;;;21.30;28.10;;;;;;5055397;28;20219;-58
2024/01/14 09:04:50;;;;;;;8.10;6.00;;;21.30;28.10;;;;;;5055079;28;20195;-63
2024/01/14 09:07:17;;;;;;;6.90;5.28;;;21.20;28.00;;;;;;5054901;28;20267;-60
2024/01/14 09:09:43;;;;;;;8.00;6.00;;;21.20;28.00;;;;;;5055231;28;20200;-62
2024/01/14 09:12:11;;;;;;;7.13;5.65;;;21.30;28.10;;;;;;5054598;28;20307;-61
2024/01/14 09:14:38;;;;;;;7.90;6.10;;;21.30;28.10;;;;;;5055114;28;20211;-62
2024/01/14 09:17:06;;;;;;;6.70;5.45;;;21.20;28.00;;;;;;5055056;28;20255;-61
2024/01/14 09:19:33;;;;;;;7.05;5.28;;;21.20;28.30;;;;;;5054633;28;20202;-62
2024/01/14 09:22:00;;;;;;;7.15;5.47;;;21.20;28.00;;;;;;5054685;28;20247;-62
2024/01/14 09:24:27;;;;;;;7.05;5.53;;;21.20;28.00;;;;;;5054942;28;20242;-61
2024/01/14 09:26:53;;;;;;;6.85;5.20;;;21.20;28.00;;;;;;5054416;28;20242;-63
2024/01/14 09:29:20;;;;;;;7.20;5.63;;;21.20;28.00;;;;;;5054876;28;20199;-62
2024/01/14 09:31:47;;;;;;;7.35;5.55;;;21.30;28.10;;;;;;5054761;28;20191;-61
2024/01/14 09:34:15;;;;;;;7.85;6.18;;;21.30;28.10;;;;;;5054438;28;20197;-63
2024/01/14 09:36:42;;;;;;;7.05;5.47;;;21.20;28.10;;;;;;5054759;28;20190;-62
2024/01/14 09:39:10;;;;;;;7.50;5.50;;;21.30;28.10;;;;;;5054641;28;20601;-62
2024/01/14 09:41:43;;;;;;;7.22;5.60;;;21.30;28.10;;;;;;5054164;28;20188;-62
2024/01/14 09:44:14;;;;;;;7.95;5.82;;;21.30;28.10;;;;;;5054497;28;20198;-62
2024/01/14 09:46:41;;;;;;;8.35;5.85;;;21.20;28.00;;;;;;5054236;28;20684;-62
2024/01/14 09:49:10;;;;;;;7.53;5.50;;;21.20;28.00;;;;;;5054110;28;20194;-62
2024/01/14 09:51:39;;;;;;;6.90;5.05;;;21.20;28.00;;;;;;5054065;28;20188;-62
2024/01/14 09:54:06;;;;;;;7.80;5.88;;;21.30;28.10;;;;;;5054373;28;20188;-62
2024/01/14 09:56:34;;;;;;;8.50;5.63;;;21.20;28.00;;;;;;5053561;28;20195;-61
2024/01/14 09:59:03;;;;;;;6.38;5.15;;;21.20;28.00;;;;;;5054032;28;20567;-62
2024/01/14 10:01:32;;;;;;;9.23;5.85;;;21.20;28.00;;;;;;5054113;28;20559;-60
2024/01/14 10:04:01;;;;;;;7.13;5.20;;;21.20;28.00;;;;;;5053992;28;20199;-62
2024/01/14 10:06:28;;;;;;;6.63;5.22;;;21.30;28.10;;;;;;5054060;28;20195;-63
2024/01/14 10:08:57;;;;;;;7.13;5.47;;;21.20;28.00;;;;;;5054250;28;20712;-62
2024/01/14 10:11:24;;;;;;;6.82;5.43;;;21.20;28.10;;;;;;5053662;28;20666;-62
2024/01/14 10:13:51;;;;;;;6.30;5.10;;;21.20;28.00;;;;;;5054135;28;20306;-62
2024/01/14 10:16:18;;;;;;;6.22;5.03;;;21.20;28.10;;;;;;5053713;28;20669;-62
2024/01/14 10:18:45;;;;;;;6.68;5.53;;;21.20;28.00;;;;;;5053753;28;20314;-61
2024/01/14 10:21:12;;;;;;;6.07;5.10;;;21.20;28.00;;;;;;5053850;28;20286;-62
2024/01/14 10:23:40;;;;;;;6.65;5.13;;;21.20;28.00;;;;;;5053724;28;20247;-62
2024/01/14 10:26:09;;;;;;;7.50;5.22;;;21.20;28.60;;;;;;5053155;28;20188;-61
2024/01/14 10:28:37;;;;;;;7.35;5.43;;;21.20;28.00;;;;;;5053596;28;20239;-62
2024/01/14 10:31:06;;;;;;;5.82;5.00;;;21.20;28.00;;;;;;5053657;28;20287;-62
2024/01/14 10:33:34;;;;;;;7.03;5.60;;;21.20;28.00;;;;;;5053475;28;20255;-62
2024/01/14 10:36:02;;;;;;;7.70;6.10;;;21.20;28.00;;;;;;5053563;28;20218;-62
2024/01/14 10:38:29;;;;;;;7.05;5.65;;;21.30;28.10;;;;;;5053620;28;20302;-61
2024/01/14 10:40:55;;;;;;;7.80;5.60;;;21.20;28.00;;;;;;5052975;28;20184;-62
2024/01/14 10:43:26;;;;;;;7.30;5.53;;;21.20;28.00;;;;;;5053310;28;20306;-59
2024/01/14 10:45:53;;;;;;;6.75;5.03;;;21.20;28.00;;;;;;5053560;28;20198;-62
2024/01/14 10:48:26;;;;;;;7.40;5.72;;;21.30;28.10;;;;;;5053060;28;20245;-60
2024/01/14 10:50:55;;;;;;;6.05;5.13;;;21.30;28.10;;;;;;5053356;28;20554;-62
2024/01/14 10:53:24;;;;;;;7.35;5.25;;;21.30;28.10;;;;;;5053124;28;20219;-58
2024/01/14 10:55:57;;;;;;;7.60;5.53;;;21.30;28.10;;;;;;5052513;28;20192;-61
2024/01/14 10:58:29;;;;;;;6.65;4.95;;;21.20;28.50;;;;;;5053056;28;20230;-62
2024/01/14 11:01:00;;;;;;;7.53;5.80;;;21.20;28.00;;;;;;5053112;28;20641;-62
2024/01/14 11:03:28;;;;;;;7.22;5.65;;;21.30;28.10;;;;;;5052384;28;20596;-61
2024/01/14 11:05:55;;;;;;;7.05;5.32;;;21.30;28.10;;;;;;5053020;28;20188;-62
2024/01/14 11:08:22;;;;;;;6.10;4.95;;;21.30;28.10;;;;;;5052670;28;20235;-62
2024/01/14 11:10:50;;;;;;;6.45;4.90;;;21.30;28.10;;;;;;5052941;28;20200;-62
2024/01/14 11:13:25;;;;;;;7.07;5.07;;;21.30;28.10;;;;;;5052999;28;20310;-62
2024/01/14 11:16:00;;;;;;;6.40;5.28;;;21.30;28.10;;;;;;5052878;28;20237;-62
2024/01/14 11:18:31;;;;;;;5.85;4.90;;;21.30;28.10;;;;;;5052521;28;20302;-61
2024/01/14 11:21:06;;;;;;;6.57;5.18;;;21.30;28.10;;;;;;5052641;28;20198;-62
2024/01/14 11:23:34;;;;;;;7.65;5.38;;;21.30;28.10;;;;;;5052525;28;20306;-62
2024/01/14 11:26:01;;;;;;;7.38;5.40;;;21.30;28.10;;;;;;5051963;28;20533;-61
2024/01/14 11:28:29;;;;;;;7.43;5.43;;;21.30;28.10;;;;;;5052646;28;20242;-62
2024/01/14 11:30:59;;;;;;;7.68;5.50;;;21.30;28.10;;;;;;5052539;28;20194;-62
2024/01/14 11:33:31;;;;;;;7.13;5.68;;;21.30;28.10;;;;;;5052338;28;20247;-62
2024/01/14 11:35:58;;;;;;;6.18;5.40;;;21.30;28.10;;;;;;5052504;28;20191;-61
2024/01/14 11:38:35;;;;;;;5.78;5.07;;;21.30;28.10;;;;;;5052578;28;20234;-62
2024/01/14 11:41:23;;;;;;;6.75;5.35;;;21.30;28.10;;;;;;5052164;28;20541;-62
2024/01/14 11:43:52;;;;;;;6.20;5.25;;;21.30;28.10;;;;;;5052692;28;20614;-62
2024/01/14 11:46:42;;;;;;;7.75;5.88;;;21.30;28.10;;;;;;5052064;28;20192;-61
2024/01/14 11:49:10;;;;;;;7.35;5.28;;;21.30;28.10;;;;;;5047688;28;20603;-62
2024/01/14 11:51:43;;;;;;;5.93;4.70;;;21.20;28.00;;;;;;5052273;28;20199;-62
2024/01/14 11:54:10;;;;;;;6.35;5.18;;;21.30;28.10;;;;;;5052264;28;20315;-61
2024/01/14 11:56:37;;;;;;;6.57;5.25;;;21.30;28.10;;;;;;5052286;28;20275;-62
2024/01/14 11:59:08;;;;;;;6.70;4.95;;;21.30;28.10;;;;;;5052468;28;20306;-63
2024/01/14 12:01:36;;;;;;;6.78;5.22;;;21.30;28.10;;;;;;5051442;28;20204;-62
2024/01/14 12:04:04;;;;;;;6.93;5.35;;;21.30;28.10;;;;;;5052084;28;20694;-62
2024/01/14 12:06:39;;;;;;;7.68;5.88;;;21.30;28.10;;;;;;5052284;28;20282;-62
2024/01/14 12:09:06;;;;;;;6.90;5.18;;;21.30;28.10;;;;;;5055966;28;20317;-61
2024/01/14 12:11:33;;;;;;;8.52;5.95;;;21.30;28.10;;;;;;5056219;28;20665;-62
2024/01/14 12:14:00;;;;;;;6.45;5.43;;;21.30;28.10;;;;;;5056493;28;20219;-62
2024/01/14 12:16:27;;;;;;;6.28;5.18;;;21.30;28.10;;;;;;5056011;28;20215;-62
2024/01/14 12:18:54;;;;;;;7.60;5.50;;;21.30;28.10;;;;;;5056304;28;20298;-62
2024/01/14 12:21:23;;;;;;;7.50;5.07;;;21.30;28.10;;;;;;5056168;28;20190;-62
2024/01/14 12:23:51;;;;;;;6.82;5.32;;;21.30;28.10;;;;;;5055855;28;20211;-62
2024/01/14 12:26:19;;;;;;;6.13;5.18;;;21.30;28.10;;;;;;5056007;28;20251;-62
2024/01/14 12:28:46;;;;;;;6.50;5.53;;;21.30;28.10;;;;;;5055824;28;20738;-63
2024/01/14 12:31:19;;;;;;;7.38;5.80;;;21.30;28.10;;;;;;5055523;28;20192;-62
2024/01/14 12:33:46;;;;;;;7.30;5.55;;;21.30;28.10;;;;;;5055969;28;20225;-62
2024/01/14 12:36:13;;;;;;;6.47;5.45;;;21.30;28.10;;;;;;5055925;28;20191;-63
2024/01/14 12:38:42;;;;;;;8.02;5.57;;;21.30;28.10;;;;;;5055397;28;20222;-63
2024/01/14 12:41:10;;;;;;;7.50;5.95;;;21.30;28.10;;;;;;5055688;28;20283;-62
2024/01/14 12:43:37;;;;;;;8.80;5.85;;;21.30;28.10;;;;;;5055632;28;20219;-62
2024/01/14 12:46:05;;;;;;;7.38;5.82;;;21.30;28.10;;;;;;5055379;28;20184;-62
2024/01/14 12:48:32;;;;;;;7.82;6.15;;;21.30;28.10;;;;;;5055187;28;20795;-62
2024/01/14 12:51:01;;;;;;;7.45;5.97;;;21.30;28.10;;;;;;5055627;28;20286;-62